Terminal Aerodrome Forecast
Issued by NWS

Home | Current Version | Previous Version | Text Only | Print | Product List | Glossary On
Versions: 1 2 3 4 5 6 7 8 9 10 11 12
371
FTUS44 KBMX 280520
TAFTCL
TAF
KTCL 280520Z 2806/2906 18004KT P6SM SCT050 BKN150
     FM281400 17008KT P6SM SCT045 BKN250=

USA.gov is the U.S. government's official web portal to all federal, state and local government web resources and services.